General Pedro Jose Mendez International Airport
MMCV : now visible

Airfield :











YOU CAN JOIN US ON...

 
LOGIN :

Register | Disclaimer

   EN    FR    IT 

 









Legend :    VFR   Marginal VFR   IFR   Intensive IFR   Very Intensive IFR
Visi :
Ceiling :
>= 8 km
>= 3000ft
5 to 8 km
1000 to 3000 ft
1500m to 5 km
500 to 1000 ft
800 to 1500m
200 to 500 ft
< 800m
< 200 ft
Symbols :   Thunderstorms  Fog  Heavy snow  Heavy precipitations  Wind > 20 kt






- Airport Elevation : 761 ft
- IATA code : CVM


MMCV - General Pedro Jose Mendez International

EXPIRED METARs :
  • 012040Z 03007KT 7SM OVC030 19/09 A3005 RMK SLP/// 57028 965 8/5// HZY

TAF TAF MMCV
Valid from the 02 at 06:00 until the 03 at 06:00 UTC


020520Z 0206/0306 00000KT 6SM HZ SCT030
TEMPO 0209/0213 3SM BR BKN010
FM021400 12005KT 6SM HZ SCT015 SCT240
FM021800 14010KT P6SM SCT020 SCT080 BKN200
FM030300 36005KT 6SM HZ SCT030 SCT070 BKN200
MMFR FIR / North America



MET'MAP, your aeronautical weather chart ! - Copyright ORBIFLY December 2007 - Disclaimer

ORBIFLY MET'MAP TEAM :

Programming & Development : Alexandra Zaïnal
Original concept : Baudouin d'Aumeries
Technical & hardware support : Manuel Goepfert
Assistance : Marc-Olivier Méhu




SOURCES & CREDITS :

   NOAA       Earth
Advisory